Time;durP1;ratioP1;P1;durP2;ratioP2;P2;SDS_P1;SDS_P2;PMS_P1;PMS_P2;Temp;Humidity;BMP_temperature;BMP_pressure;BME280_temperature;BME280_humidity;BME280_pressure;Samples;Min_cycle;Max_cycle;Signal;HPM_P1;HPM_P2
2022/04/10 00:01:39;;;;;;;9.03;2.27;;;3.50;1.00;;;;;;6097798;23;20761;-88
2022/04/10 00:04:06;;;;;;;4.93;1.97;;;3.40;1.00;;;;;;6097735;23;20223;-88
2022/04/10 00:06:35;;;;;;;8.47;2.23;;;3.40;1.00;;;;;;6097834;23;20167;-88
2022/04/10 00:09:02;;;;;;;9.63;4.17;;;3.40;1.00;;;;;;6097471;23;20223;-87
2022/04/10 00:11:29;;;;;;;8.53;2.33;;;3.40;1.00;;;;;;6097388;23;20164;-87
2022/04/10 00:13:56;;;;;;;10.07;2.70;;;3.40;1.00;;;;;;6097317;23;20168;-86
2022/04/10 00:16:23;;;;;;;7.40;2.40;;;3.50;1.00;;;;;;6097781;23;20230;-88
2022/04/10 00:18:51;;;;;;;12.73;4.37;;;3.50;15.50;;;;;;6097294;23;20187;-89
2022/04/10 00:21:18;;;;;;;16.57;5.77;;;3.60;35.40;;;;;;6097625;23;20176;-86
2022/04/10 00:23:46;;;;;;;12.87;3.17;;;3.70;46.90;;;;;;6097078;23;20254;-87
2022/04/10 00:26:14;;;;;;;7.00;2.53;;;3.70;52.30;;;;;;6097336;23;20164;-85
2022/04/10 00:28:41;;;;;;;8.60;2.43;;;3.80;44.00;;;;;;6097077;23;20167;-88
2022/04/10 00:31:08;;;;;;;8.77;2.80;;;3.80;24.10;;;;;;6097382;23;20246;-87
2022/04/10 00:33:35;;;;;;;6.13;2.83;;;3.90;2.40;;;;;;6097172;23;20168;-90
2022/04/10 00:36:03;;;;;;;10.77;3.40;;;3.90;1.00;;;;;;6097195;23;20218;-85
2022/04/10 00:38:30;;;;;;;11.03;2.67;;;3.90;1.00;;;;;;6096900;23;20192;-86
2022/04/10 00:40:59;;;;;;;7.93;2.30;;;3.80;1.00;;;;;;6097079;23;20223;-88
2022/04/10 00:43:32;;;;;;;8.53;2.97;;;3.80;1.00;;;;;;6097055;23;20167;-85
2022/04/10 00:45:59;;;;;;;9.67;2.40;;;3.70;1.00;;;;;;6096890;23;20234;-87
2022/04/10 00:48:27;;;;;;;9.20;2.50;;;3.70;1.00;;;;;;6097174;23;20163;-88
2022/04/10 00:53:40;;;;;;;8.10;2.93;;;3.60;1.00;;;;;;6097201;23;20597;-86
2022/04/10 00:56:09;;;;;;;7.97;2.30;;;3.60;1.00;;;;;;6096972;23;20685;-87
2022/04/10 00:58:36;;;;;;;4.50;2.47;;;3.50;1.00;;;;;;6097057;23;20184;-87
2022/04/10 01:01:03;;;;;;;6.53;2.13;;;3.50;1.00;;;;;;6097407;23;20175;-86
2022/04/10 01:03:30;;;;;;;9.93;2.13;;;3.40;1.00;;;;;;6096761;23;20171;-88
2022/04/10 01:05:57;;;;;;;4.80;2.07;;;3.40;1.00;;;;;;6097190;23;20163;-86
2022/04/10 01:08:24;;;;;;;6.07;2.20;;;3.40;1.00;;;;;;6097565;23;20175;-89
2022/04/10 01:10:51;;;;;;;7.60;2.37;;;3.30;1.00;;;;;;6096665;23;20174;-88
2022/04/10 01:13:20;;;;;;;6.97;2.37;;;3.30;1.00;;;;;;6096626;23;20226;-84
2022/04/10 01:15:47;;;;;;;8.63;2.30;;;3.30;1.00;;;;;;6097170;23;20226;-89
2022/04/10 01:18:14;;;;;;;7.43;2.10;;;3.20;1.00;;;;;;6104622;23;20665;-86
2022/04/10 01:20:42;;;;;;;7.20;2.20;;;3.20;1.00;;;;;;6096650;23;20521;-86
2022/04/10 01:23:10;;;;;;;9.73;2.37;;;3.20;1.00;;;;;;6096318;23;20242;-87
2022/04/10 01:25:37;;;;;;;7.67;2.00;;;3.20;1.00;;;;;;6096875;23;20171;-89
2022/04/10 01:28:11;;;;;;;5.30;1.80;;;3.10;1.00;;;;;;6096724;23;20632;-84
2022/04/10 01:30:38;;;;;;;5.83;2.27;;;3.10;10.60;;;;;;6096535;23;20194;-85
2022/04/10 01:33:06;;;;;;;10.37;2.50;;;3.10;5.60;;;;;;6096672;23;20167;-89
2022/04/10 01:35:35;;;;;;;11.17;2.90;;;3.00;13.90;;;;;;6096527;23;20171;-86
2022/04/10 01:38:05;;;;;;;9.20;2.90;;;3.00;31.80;;;;;;6096703;23;20188;-88
2022/04/10 01:40:34;;;;;;;11.30;2.47;;;3.00;46.10;;;;;;6096853;23;20160;-84
2022/04/10 01:43:01;;;;;;;9.20;1.97;;;2.90;54.30;;;;;;6096826;23;20205;-84
2022/04/10 01:45:28;;;;;;;5.60;2.40;;;2.90;77.90;;;;;;6096516;23;20653;-87
2022/04/10 01:47:55;;;;;;;9.13;2.37;;;2.90;97.80;;;;;;6096720;23;20179;-86
2022/04/10 01:50:22;;;;;;;11.17;2.23;;;2.80;99.90;;;;;;6096474;23;20179;-87
2022/04/10 01:52:49;;;;;;;9.43;2.50;;;2.80;99.90;;;;;;6096646;23;20210;-86
2022/04/10 01:55:16;;;;;;;7.97;2.30;;;2.80;99.90;;;;;;6096500;23;20547;-85
2022/04/10 01:57:45;;;;;;;9.30;2.33;;;2.80;99.90;;;;;;6096336;23;20561;-91
2022/04/10 02:00:13;;;;;;;8.53;2.20;;;2.80;99.90;;;;;;6096255;23;20223;-86
2022/04/10 02:02:40;;;;;;;10.33;2.47;;;2.80;99.90;;;;;;6096690;23;20209;-86
2022/04/10 02:05:08;;;;;;;8.87;2.20;;;2.70;99.90;;;;;;6096873;23;20163;-85
2022/04/10 02:07:34;;;;;;;8.30;1.90;;;2.70;99.90;;;;;;6096534;23;20478;-86
2022/04/10 02:10:02;;;;;;;8.53;2.07;;;2.70;99.90;;;;;;6096821;23;20173;-87
2022/04/10 02:12:40;;;;;;;4.73;2.00;;;2.70;99.90;;;;;;6100403;23;20172;-91
2022/04/10 02:15:09;;;;;;;6.50;2.40;;;2.60;99.90;;;;;;6103572;23;20171;-86
2022/04/10 02:17:36;;;;;;;5.50;2.40;;;2.60;99.90;;;;;;6096950;23;20175;-89
2022/04/10 02:20:03;;;;;;;5.27;1.83;;;2.60;99.90;;;;;;6096734;23;20171;-87
2022/04/10 02:22:30;;;;;;;6.57;2.13;;;2.60;99.90;;;;;;6096706;23;20239;-88
2022/04/10 02:24:57;;;;;;;7.70;2.03;;;2.60;99.90;;;;;;6096733;23;20650;-86
2022/04/10 02:27:24;;;;;;;8.83;2.10;;;2.60;99.90;;;;;;6097099;23;20173;-88
2022/04/10 02:29:51;;;;;;;8.00;2.13;;;2.60;99.90;;;;;;6096341;23;20179;-91
2022/04/10 02:32:19;;;;;;;6.23;2.03;;;2.70;99.90;;;;;;6096787;23;20175;-88
2022/04/10 02:34:47;;;;;;;5.50;2.20;;;2.70;1.00;;;;;;6096628;23;20626;-86
2022/04/10 02:37:14;;;;;;;10.80;2.37;;;2.80;1.00;;;;;;6096706;23;20176;-88
2022/04/10 02:39:41;;;;;;;6.87;2.33;;;2.80;1.00;;;;;;6097176;23;20239;-89
2022/04/10 02:42:08;;;;;;;8.80;2.67;;;2.90;1.00;;;;;;6096771;23;20693;-87
2022/04/10 02:44:35;;;;;;;6.97;2.37;;;3.00;1.00;;;;;;6097122;23;20230;-85
2022/04/10 02:47:02;;;;;;;8.37;2.63;;;3.00;1.00;;;;;;6096836;23;20626;-86
2022/04/10 02:49:30;;;;;;;8.20;2.90;;;3.10;1.00;;;;;;6096533;23;20218;-88
2022/04/10 02:51:57;;;;;;;8.03;2.10;;;3.10;1.00;;;;;;6096619;23;20171;-87
2022/04/10 02:54:24;;;;;;;7.97;2.60;;;3.20;1.00;;;;;;6096652;23;20171;-91
2022/04/10 02:56:51;;;;;;;4.67;1.90;;;3.30;1.00;;;;;;6097827;23;20178;-88
2022/04/10 02:59:18;;;;;;;8.53;3.07;;;3.30;1.00;;;;;;6098353;23;20234;-87
2022/04/10 03:01:49;;;;;;;6.93;2.50;;;3.30;1.00;;;;;;6098292;23;20541;-90
2022/04/10 03:04:16;;;;;;;11.97;2.23;;;3.40;1.00;;;;;;6098494;23;20541;-89
2022/04/10 03:06:45;;;;;;;7.83;2.60;;;3.40;1.00;;;;;;6098514;23;20222;-89
2022/04/10 03:09:12;;;;;;;6.13;2.53;;;3.40;1.00;;;;;;6098313;23;20171;-91
2022/04/10 03:11:39;;;;;;;9.80;2.40;;;3.40;1.00;;;;;;6098050;23;20686;-88
2022/04/10 03:14:06;;;;;;;8.30;2.40;;;3.50;1.00;;;;;;6098648;23;20175;-90
2022/04/10 03:16:33;;;;;;;9.00;2.80;;;3.50;1.00;;;;;;6097935;23;20172;-87
2022/04/10 03:19:00;;;;;;;6.60;2.70;;;3.50;1.00;;;;;;6098510;23;20248;-87
2022/04/10 03:21:27;;;;;;;7.50;2.50;;;3.50;1.00;;;;;;6097892;23;20222;-87
2022/04/10 03:23:56;;;;;;;9.57;2.67;;;3.60;1.00;;;;;;6098093;23;20250;-86
2022/04/10 03:26:23;;;;;;;10.70;5.20;;;3.50;1.00;;;;;;6097882;23;20173;-88
2022/04/10 03:28:50;;;;;;;7.27;2.47;;;3.60;1.00;;;;;;6098200;23;20532;-87
2022/04/10 03:31:17;;;;;;;9.33;2.57;;;3.60;1.00;;;;;;6097749;23;20536;-87
2022/04/10 03:33:44;;;;;;;11.40;3.63;;;3.60;99.90;;;;;;6098529;23;20175;-91
2022/04/10 03:36:12;;;;;;;6.87;3.07;;;3.60;99.90;;;;;;6097818;23;20171;-87
2022/04/10 03:38:39;;;;;;;9.07;2.60;;;3.60;99.90;;;;;;6097912;23;20220;-88
2022/04/10 03:41:07;;;;;;;10.37;2.80;;;3.60;99.90;;;;;;6098391;23;20483;-87
2022/04/10 03:43:34;;;;;;;7.73;2.30;;;3.70;99.90;;;;;;6098098;23;20171;-89
2022/04/10 03:46:02;;;;;;;10.67;2.80;;;3.70;99.90;;;;;;6097872;23;20168;-87
2022/04/10 03:48:30;;;;;;;8.00;2.30;;;3.70;99.90;;;;;;6097408;23;20493;-87
2022/04/10 03:50:57;;;;;;;12.27;6.23;;;3.70;99.90;;;;;;6097388;23;20221;-87
2022/04/10 03:53:24;;;;;;;10.60;2.80;;;3.70;99.90;;;;;;6097937;23;20172;-89
2022/04/10 03:55:51;;;;;;;9.23;3.47;;;3.70;99.90;;;;;;6098019;23;20168;-87
2022/04/10 03:58:19;;;;;;;7.87;2.93;;;3.70;99.90;;;;;;6097606;23;20252;-89
2022/04/10 04:00:47;;;;;;;7.70;2.90;;;3.70;99.90;;;;;;6097589;23;20173;-87
2022/04/10 04:03:14;;;;;;;11.57;3.30;;;3.70;99.90;;;;;;6110748;23;20484;-88
2022/04/10 04:05:41;;;;;;;8.80;3.10;;;3.70;99.90;;;;;;6098083;23;20178;-87
2022/04/10 04:08:08;;;;;;;8.87;3.37;;;3.70;99.90;;;;;;6097863;23;20224;-85
2022/04/10 04:10:35;;;;;;;10.87;2.87;;;3.70;99.90;;;;;;6097515;23;20540;-89
2022/04/10 04:13:03;;;;;;;7.60;2.93;;;3.80;99.90;;;;;;6097758;23;20183;-85
2022/04/10 04:15:31;;;;;;;7.93;3.60;;;3.80;99.90;;;;;;6097706;23;20636;-90
2022/04/10 04:17:58;;;;;;;6.17;2.40;;;3.80;99.90;;;;;;6097352;23;20171;-90
2022/04/10 04:20:25;;;;;;;8.43;2.40;;;3.80;99.90;;;;;;6116547;23;20213;-90
2022/04/10 04:22:53;;;;;;;14.63;7.73;;;3.70;99.90;;;;;;6097298;23;20203;-89
2022/04/10 04:25:20;;;;;;;9.17;2.23;;;3.80;99.90;;;;;;6097658;23;20167;-89
2022/04/10 04:27:47;;;;;;;6.53;2.67;;;3.80;99.90;;;;;;6097889;23;20167;-91
2022/04/10 04:30:15;;;;;;;5.33;2.60;;;3.80;99.90;;;;;;6097279;23;20171;-87
2022/04/10 04:32:43;;;;;;;7.53;2.67;;;3.80;99.90;;;;;;6096594;23;20171;-88
2022/04/10 04:35:12;;;;;;;8.57;3.00;;;3.80;99.90;;;;;;6098231;23;20234;-89
2022/04/10 04:37:40;;;;;;;7.30;2.67;;;3.80;99.90;;;;;;6099408;23;20165;-87
2022/04/10 04:40:08;;;;;;;8.17;2.70;;;3.80;99.90;;;;;;6101187;23;20250;-88
2022/04/10 04:42:35;;;;;;;6.80;2.60;;;3.80;99.90;;;;;;6097950;23;20220;-91
2022/04/10 04:45:02;;;;;;;9.53;2.73;;;3.80;99.90;;;;;;6097546;23;20171;-87
2022/04/10 04:47:29;;;;;;;10.50;2.90;;;3.80;99.90;;;;;;6097341;23;20168;-86
2022/04/10 04:49:58;;;;;;;9.77;5.07;;;3.80;99.90;;;;;;6097464;23;20176;-87
2022/04/10 04:52:25;;;;;;;6.93;2.30;;;3.80;99.90;;;;;;6097546;23;20171;-87
2022/04/10 04:54:52;;;;;;;11.40;2.90;;;3.80;99.90;;;;;;6102991;23;20236;-86
2022/04/10 04:57:19;;;;;;;7.47;2.63;;;3.80;99.90;;;;;;6104523;23;20248;-88
2022/04/10 04:59:47;;;;;;;7.80;3.03;;;3.80;99.90;;;;;;6102587;23;20191;-90
2022/04/10 05:02:14;;;;;;;7.10;2.97;;;3.80;99.90;;;;;;6100593;23;20678;-90
2022/04/10 05:04:41;;;;;;;6.87;3.13;;;3.80;99.90;;;;;;6097932;23;20171;-89
2022/04/10 05:07:09;;;;;;;11.37;3.67;;;3.80;99.90;;;;;;6099164;23;20191;-87
2022/04/10 05:09:36;;;;;;;8.10;2.60;;;3.90;99.90;;;;;;6098775;23;20167;-90
2022/04/10 05:12:03;;;;;;;9.73;3.63;;;3.90;99.90;;;;;;6100849;23;20183;-89
2022/04/10 05:14:31;;;;;;;10.33;5.17;;;3.90;99.90;;;;;;6098293;23;20175;-90
2022/04/10 05:16:58;;;;;;;8.50;3.50;;;3.90;99.90;;;;;;6100400;23;20195;-90
2022/04/10 05:19:25;;;;;;;10.00;4.20;;;3.90;99.90;;;;;;6098408;23;20191;-90
2022/04/10 05:21:52;;;;;;;12.77;4.97;;;3.90;99.90;;;;;;6099501;23;20174;-89
2022/04/10 05:24:20;;;;;;;15.23;3.50;;;4.00;99.90;;;;;;6101120;23;20196;-92
2022/04/10 05:26:47;;;;;;;7.83;3.13;;;4.00;99.90;;;;;;6098015;23;20550;-92
2022/04/10 05:29:14;;;;;;;9.83;3.67;;;4.00;99.90;;;;;;6101095;23;20148;-87
2022/04/10 05:31:41;;;;;;;9.17;3.50;;;4.00;99.90;;;;;;6097997;23;20232;-88
2022/04/10 05:34:08;;;;;;;14.80;6.13;;;4.00;99.90;;;;;;6099397;23;20237;-90
2022/04/10 05:36:35;;;;;;;13.17;6.47;;;4.00;99.90;;;;;;6098386;23;20175;-87
2022/04/10 05:39:03;;;;;;;17.77;6.83;;;4.10;99.90;;;;;;6100902;23;20214;-87
2022/04/10 05:41:31;;;;;;;16.87;5.07;;;4.10;99.90;;;;;;6100640;23;20167;-90
2022/04/10 05:43:58;;;;;;;22.37;6.80;;;4.10;99.90;;;;;;6098440;23;20691;-87
2022/04/10 05:46:25;;;;;;;12.33;5.60;;;4.10;99.90;;;;;;6099172;23;20173;-91
2022/04/10 05:48:54;;;;;;;14.83;5.80;;;4.20;99.90;;;;;;6099299;23;20175;-92
2022/04/10 05:51:21;;;;;;;26.43;9.37;;;4.20;99.90;;;;;;6099829;23;20174;-88
2022/04/10 05:53:48;;;;;;;8.43;3.20;;;4.20;99.90;;;;;;6099684;23;20531;-88
2022/04/10 05:56:17;;;;;;;12.80;5.00;;;4.30;99.90;;;;;;6101146;23;20180;-91
2022/04/10 05:58:46;;;;;;;20.43;6.83;;;4.20;99.90;;;;;;6104074;23;20224;-90
2022/04/10 06:01:13;;;;;;;22.00;7.67;;;4.30;99.90;;;;;;6100690;23;20243;-86
2022/04/10 06:03:44;;;;;;;9.47;4.10;;;4.30;99.90;;;;;;6100075;23;20609;-88
2022/04/10 06:06:11;;;;;;;9.07;3.60;;;4.30;99.90;;;;;;6102294;23;20177;-90
2022/04/10 06:08:38;;;;;;;12.47;4.20;;;4.40;99.90;;;;;;6103842;23;20169;-90
2022/04/10 06:11:05;;;;;;;9.20;4.23;;;4.30;99.90;;;;;;6097504;23;20172;-91
2022/04/10 06:13:32;;;;;;;10.67;4.97;;;4.40;99.90;;;;;;6097509;23;20168;-89
2022/04/10 06:16:00;;;;;;;14.33;4.17;;;4.40;99.90;;;;;;6098699;23;20172;-90
2022/04/10 06:18:27;;;;;;;11.30;4.53;;;4.40;99.90;;;;;;6098340;23;20702;-89
2022/04/10 06:20:54;;;;;;;9.77;3.53;;;4.40;99.90;;;;;;6097136;23;20187;-90
2022/04/10 06:23:23;;;;;;;11.17;4.10;;;4.40;99.90;;;;;;6098922;23;20283;-90
2022/04/10 06:25:50;;;;;;;13.83;4.63;;;4.40;99.90;;;;;;6098852;23;20494;-88
2022/04/10 06:28:17;;;;;;;14.40;6.60;;;4.40;99.90;;;;;;6097618;23;20173;-88
2022/04/10 06:30:45;;;;;;;19.60;8.57;;;4.40;99.90;;;;;;6103629;23;20180;-93
2022/04/10 06:33:17;;;;;;;21.47;7.80;;;4.50;99.90;;;;;;6097132;23;20197;-86
2022/04/10 06:36:01;;;;;;;15.87;6.70;;;4.50;99.90;;;;;;6103919;23;20159;-90
2022/04/10 06:38:29;;;;;;;15.33;5.13;;;4.60;99.90;;;;;;6110317;23;20485;-86
2022/04/10 06:41:04;;;;;;;14.07;5.90;;;4.60;99.90;;;;;;6112709;23;20195;-89
2022/04/10 06:43:37;;;;;;;26.43;9.90;;;4.70;99.90;;;;;;6114148;23;20286;-89
2022/04/10 06:46:04;;;;;;;33.03;12.07;;;4.70;99.90;;;;;;6113291;23;20170;-87
2022/04/10 06:48:35;;;;;;;11.47;4.83;;;4.70;99.90;;;;;;6106788;23;20257;-88
2022/04/10 06:51:03;;;;;;;33.50;10.90;;;4.70;99.90;;;;;;6099483;23;20878;-89
2022/04/10 06:53:30;;;;;;;29.40;10.87;;;4.80;99.90;;;;;;6099664;23;20250;-89
2022/04/10 06:55:57;;;;;;;29.23;12.27;;;4.80;99.90;;;;;;6106516;23;20195;-87
2022/04/10 06:58:48;;;;;;;44.70;19.47;;;4.90;99.90;;;;;;6117459;23;20178;-92
2022/04/10 07:01:15;;;;;;;32.03;10.70;;;4.90;99.90;;;;;;6115902;23;20523;-87
2022/04/10 07:03:48;;;;;;;14.80;4.73;;;5.00;99.90;;;;;;6119770;23;20173;-89
2022/04/10 07:06:18;;;;;;;22.97;7.97;;;5.10;99.90;;;;;;6113020;23;20151;-88
2022/04/10 07:08:47;;;;;;;47.57;18.03;;;5.20;99.90;;;;;;6118691;23;20155;-88
2022/04/10 07:11:17;;;;;;;19.00;6.87;;;5.30;99.90;;;;;;6118427;23;20171;-88
2022/04/10 07:13:48;;;;;;;38.83;14.17;;;5.30;99.90;;;;;;6119642;23;20195;-89
2022/04/10 07:16:20;;;;;;;30.50;10.83;;;5.40;99.90;;;;;;6118569;23;20174;-87
2022/04/10 07:18:51;;;;;;;40.90;14.60;;;5.40;99.90;;;;;;6117995;23;20168;-91
2022/04/10 07:23:41;;;;;;;16.17;5.57;;;5.50;99.90;;;;;;6114625;23;20205;-87
2022/04/10 07:24:08;;;;;;;11.40;3.97;;;5.50;99.90;;;;;;6115353;23;20215;-90
2022/04/10 07:26:35;;;;;;;10.43;4.40;;;5.60;99.90;;;;;;6106699;23;20231;-86
2022/04/10 07:29:03;;;;;;;19.83;8.73;;;5.60;99.90;;;;;;6115403;23;20180;-87
2022/04/10 07:31:35;;;;;;;33.20;13.07;;;5.60;68.00;;;;;;6114361;23;20172;-89
2022/04/10 07:34:04;;;;;;;9.40;4.73;;;5.70;44.60;;;;;;6104859;23;20168;-87
2022/04/10 07:36:32;;;;;;;14.57;6.10;;;5.70;56.30;;;;;;6112059;23;20168;-88
2022/04/10 07:39:00;;;;;;;34.07;12.40;;;5.80;19.80;;;;;;6097352;23;20199;-87
2022/04/10 07:41:27;;;;;;;63.77;26.07;;;5.80;9.60;;;;;;6102179;23;20187;-88
2022/04/10 07:43:54;;;;;;;23.27;8.23;;;5.80;1.00;;;;;;6103566;23;20167;-88
2022/04/10 07:49:07;;;;;;;35.13;17.07;;;5.90;1.00;;;;;;6098332;23;20174;-88
2022/04/10 07:51:34;;;;;;;13.40;5.27;;;5.90;1.00;;;;;;6103027;23;20183;-88
2022/04/10 07:54:02;;;;;;;15.43;7.20;;;5.90;1.00;;;;;;6098523;23;20167;-87
2022/04/10 07:56:29;;;;;;;31.37;14.60;;;5.90;1.00;;;;;;6098271;23;20167;-87
2022/04/10 07:58:58;;;;;;;17.90;7.67;;;6.00;1.00;;;;;;6100754;23;20176;-93
2022/04/10 08:01:26;;;;;;;19.23;9.70;;;6.10;1.00;;;;;;6096888;23;20191;-88
2022/04/10 08:03:53;;;;;;;9.33;4.57;;;6.20;1.00;;;;;;6100087;23;20168;-88
2022/04/10 08:06:21;;;;;;;28.73;13.23;;;6.30;1.00;;;;;;6097098;23;20167;-88
2022/04/10 08:08:49;;;;;;;15.40;8.00;;;6.40;1.00;;;;;;6098310;23;20172;-89
2022/04/10 08:11:17;;;;;;;10.77;6.43;;;6.50;1.00;;;;;;6106287;23;20176;-90
2022/04/10 08:13:44;;;;;;;18.20;9.80;;;6.50;1.00;;;;;;6097243;23;20244;-88
2022/04/10 08:16:11;;;;;;;17.70;8.80;;;6.50;1.00;;;;;;6103981;23;20619;-88
2022/04/10 08:18:38;;;;;;;35.57;16.67;;;6.50;1.00;;;;;;6104177;23;20645;-88
2022/04/10 08:21:15;;;;;;;44.70;19.23;;;6.40;1.00;;;;;;6110317;23;20187;-90
2022/04/10 08:23:43;;;;;;;12.80;4.43;;;6.30;1.00;;;;;;6098987;23;20206;-87
2022/04/10 08:26:10;;;;;;;13.73;6.13;;;6.20;1.00;;;;;;6096943;23;20168;-87
2022/04/10 08:28:50;;;;;;;14.10;6.17;;;6.40;1.00;;;;;;6099927;23;20170;-92
2022/04/10 08:31:17;;;;;;;36.17;14.43;;;6.50;1.00;;;;;;6105822;23;20174;-87
2022/04/10 08:33:44;;;;;;;14.97;7.10;;;6.80;1.00;;;;;;6101452;23;20199;-88
2022/04/10 08:36:11;;;;;;;18.83;7.97;;;7.10;1.00;;;;;;6105528;23;20168;-88
2022/04/10 08:39:00;;;;;;;20.70;9.00;;;7.30;1.00;;;;;;6104472;23;20210;-90
2022/04/10 08:41:31;;;;;;;25.17;11.47;;;7.80;1.00;;;;;;6109626;23;20190;-88
2022/04/10 08:44:01;;;;;;;18.73;6.50;;;8.20;1.00;;;;;;6101173;23;20470;-88
2022/04/10 08:46:29;;;;;;;13.97;7.10;;;8.60;1.00;;;;;;6110697;23;20172;-88
2022/04/10 08:48:59;;;;;;;22.93;13.77;;;9.00;1.00;;;;;;6102663;23;20237;-89
2022/04/10 08:51:27;;;;;;;11.47;6.10;;;9.40;1.00;;;;;;6111881;23;20182;-87
2022/04/10 08:54:06;;;;;;;7.83;3.60;;;10.00;1.00;;;;;;6098403;23;20165;-91
2022/04/10 08:56:33;;;;;;;8.30;4.73;;;10.40;99.90;;;;;;6101287;23;20160;-88
2022/04/10 08:59:00;;;;;;;6.20;3.67;;;11.00;99.90;;;;;;6097871;23;20215;-91
2022/04/10 09:01:27;;;;;;;13.10;6.03;;;11.50;99.90;;;;;;6102886;23;20196;-92
2022/04/10 09:03:57;;;;;;;;;;;12.30;99.90;;;;;;6105712;23;20071;-87
2022/04/10 09:06:24;;;;;;;5.90;3.03;;;12.70;27.90;;;;;;6115856;23;20195;-90
2022/04/10 09:09:04;;;;;;;7.80;2.70;;;12.40;1.00;;;;;;6112781;23;20184;-91
2022/04/10 09:11:41;;;;;;;6.07;3.70;;;11.90;1.00;;;;;;6108429;23;20186;-93
2022/04/10 09:14:20;;;;;;;6.50;2.60;;;11.30;1.00;;;;;;6113110;23;20161;-90
2022/04/10 09:16:47;;;;;;;7.77;4.50;;;10.70;1.00;;;;;;6112410;23;20171;-89
2022/04/10 09:19:14;;;;;;;11.27;3.90;;;10.30;1.00;;;;;;6110340;23;20231;-87
2022/04/10 09:21:44;;;;;;;7.60;4.57;;;9.90;1.00;;;;;;6117409;23;20189;-86
2022/04/10 09:24:15;;;;;;;36.63;15.17;;;9.70;1.00;;;;;;6103763;23;20202;-89
2022/04/10 09:26:48;;;;;;;27.27;10.63;;;9.50;1.00;;;;;;6096649;23;20197;-88
2022/04/10 09:29:17;;;;;;;35.33;13.10;;;9.30;1.00;;;;;;6106653;23;20159;-87
2022/04/10 09:31:44;;;;;;;36.70;14.93;;;9.10;1.00;;;;;;6104560;23;20177;-87
2022/04/10 09:34:14;;;;;;;36.00;14.60;;;8.90;1.00;;;;;;6100267;23;20203;-86
2022/04/10 09:36:43;;;;;;;40.03;15.20;;;8.80;1.00;;;;;;6101960;23;20152;-89
2022/04/10 09:39:16;;;;;;;50.63;20.93;;;8.70;1.00;;;;;;6108890;23;20155;-91
2022/04/10 09:42:02;;;;;;;32.80;12.17;;;8.70;1.00;;;;;;6113445;23;20206;-90
2022/04/10 09:44:37;;;;;;;19.33;8.23;;;8.50;1.00;;;;;;6112515;23;20183;-89
2022/04/10 09:47:09;;;;;;;33.43;12.87;;;8.30;1.00;;;;;;6113135;23;20214;-87
2022/04/10 09:49:38;;;;;;;22.80;9.47;;;8.20;1.00;;;;;;6100721;23;20614;-87
2022/04/10 09:52:08;;;;;;;38.43;14.27;;;8.20;1.00;;;;;;6109277;23;20168;-87
2022/04/10 09:54:50;;;;;;;42.00;15.13;;;8.40;1.00;;;;;;6116125;23;20242;-90
2022/04/10 09:57:32;;;;;;;33.53;11.70;;;8.50;1.00;;;;;;6118195;23;20174;-92
2022/04/10 10:00:09;;;;;;;89.13;30.03;;;8.70;1.00;;;;;;6117900;23;20238;-88
2022/04/10 10:02:37;;;;;;;43.67;14.40;;;9.00;1.00;;;;;;6115730;23;20343;-87
2022/04/10 10:05:11;;;;;;;77.40;26.77;;;9.40;1.00;;;;;;6106591;23;20180;-92
2022/04/10 10:07:47;;;;;;;48.17;16.10;;;10.00;1.00;;;;;;6114789;23;20168;-86
2022/04/10 10:10:17;;;;;;;38.43;15.00;;;10.50;1.00;;;;;;6118412;23;20181;-89
2022/04/10 10:12:49;;;;;;;32.90;11.93;;;11.00;1.00;;;;;;6119505;23;20190;-88
2022/04/10 10:15:37;;;;;;;24.10;10.90;;;11.10;1.00;;;;;;6114936;23;20167;-86
2022/04/10 10:18:05;;;;;;;27.97;11.63;;;10.80;1.00;;;;;;6113064;23;20168;-85
2022/04/10 10:20:38;;;;;;;24.47;10.83;;;10.40;1.00;;;;;;6109376;23;20198;-89
2022/04/10 10:23:09;;;;;;;23.77;9.50;;;10.60;1.00;;;;;;6117550;23;20180;-88
2022/04/10 10:25:52;;;;;;;13.40;6.37;;;11.10;1.00;;;;;;6116286;23;20183;-90
2022/04/10 10:28:55;;;;;;;21.77;9.50;;;11.40;1.00;;;;;;6113657;23;20168;-88
2022/04/10 10:31:38;;;;;;;27.93;13.03;;;11.60;1.00;;;;;;6027560;23;20183;-90
2022/04/10 10:34:11;;;;;;;9.60;4.77;;;11.60;1.00;;;;;;6113555;23;20168;-93
2022/04/10 10:36:42;;;;;;;24.03;11.43;;;11.50;1.00;;;;;;6104520;23;20248;-88
2022/04/10 10:39:34;;;;;;;36.57;19.60;;;11.40;1.00;;;;;;6105270;23;20200;-90
2022/04/10 10:42:14;;;;;;;16.40;9.33;;;11.20;1.00;;;;;;6103897;23;20200;-87
2022/04/10 10:44:52;;;;;;;33.13;16.40;;;11.20;1.00;;;;;;6112593;23;20179;-89
2022/04/10 10:47:25;;;;;;;26.27;12.80;;;11.40;1.00;;;;;;6116325;23;20196;-88
2022/04/10 10:49:56;;;;;;;30.87;16.10;;;11.80;1.00;;;;;;6117548;23;20230;-87
2022/04/10 10:52:25;;;;;;;24.93;12.93;;;12.20;1.00;;;;;;6119639;23;20156;-87
2022/04/10 10:54:56;;;;;;;16.17;7.33;;;12.40;1.00;;;;;;6118817;23;20172;-88
2022/04/10 10:57:44;;;;;;;13.77;7.33;;;12.40;1.00;;;;;;6121010;23;20632;-89
2022/04/10 11:00:22;;;;;;;13.80;6.57;;;12.50;1.00;;;;;;6119913;23;20162;-90
2022/04/10 11:02:52;;;;;;;12.63;8.67;;;12.40;1.00;;;;;;6118076;23;20182;-89
2022/04/10 11:05:33;;;;;;;9.47;7.00;;;12.30;1.00;;;;;;6119437;23;20177;-91
2022/04/10 11:08:07;;;;;;;9.00;5.83;;;11.90;1.00;;;;;;6117973;23;20160;-87
2022/04/10 11:11:04;;;;;;;6.07;3.80;;;11.30;1.00;;;;;;6121845;23;20174;-89
2022/04/10 11:13:55;;;;;;;9.70;3.90;;;10.50;1.00;;;;;;6112172;23;20181;-86
2022/04/10 11:16:46;;;;;;;5.10;3.37;;;9.90;1.00;;;;;;6112563;23;20164;-87
2022/04/10 11:19:23;;;;;;;4.77;2.30;;;9.40;1.00;;;;;;6117987;23;20224;-90
2022/04/10 11:21:50;;;;;;;4.47;2.50;;;9.10;1.00;;;;;;6111054;23;20191;-86
2022/04/10 11:24:28;;;;;;;8.43;4.07;;;8.90;1.00;;;;;;6116367;23;20235;-86
2022/04/10 11:26:55;;;;;;;3.50;1.57;;;8.80;1.00;;;;;;6111382;23;20178;-87
2022/04/10 11:29:26;;;;;;;3.23;2.10;;;9.00;1.00;;;;;;6115793;23;20172;-87
2022/04/10 11:32:11;;;;;;;9.53;3.20;;;9.30;1.00;;;;;;6110736;23;20504;-90
2022/04/10 11:34:41;;;;;;;4.47;2.00;;;9.70;1.00;;;;;;6117939;23;20153;-86
2022/04/10 11:37:21;;;;;;;2.87;1.50;;;10.20;1.00;;;;;;6121718;23;20168;-89
2022/04/10 11:39:55;;;;;;;5.40;1.77;;;10.60;1.00;;;;;;6118298;23;20215;-89
2022/04/10 11:42:25;;;;;;;5.93;1.97;;;11.00;1.00;;;;;;6118475;23;20211;-90
2022/04/10 11:45:04;;;;;;;6.40;2.57;;;11.20;1.00;;;;;;6120928;23;20179;-92
2022/04/10 11:47:38;;;;;;;5.63;2.00;;;11.30;1.00;;;;;;6121683;23;20153;-89
2022/04/10 11:50:25;;;;;;;3.87;1.90;;;11.20;1.00;;;;;;6117394;23;20156;-88
2022/04/10 11:53:13;;;;;;;7.63;2.30;;;11.10;1.00;;;;;;6117454;23;20212;-91
2022/04/10 11:55:48;;;;;;;5.87;2.97;;;11.20;1.00;;;;;;6117586;23;20168;-90
2022/04/10 11:58:34;;;;;;;4.37;1.90;;;11.20;1.00;;;;;;6121557;23;20143;-90
2022/04/10 12:03:56;;;;;;;7.20;2.60;;;11.40;1.00;;;;;;6120973;23;20163;-89
2022/04/10 12:06:29;;;;;;;8.60;2.63;;;11.20;1.00;;;;;;6121104;23;20168;-89
2022/04/10 12:09:01;;;;;;;6.23;2.30;;;10.80;1.00;;;;;;6118376;23;20170;-90
2022/04/10 12:11:39;;;;;;;6.00;3.43;;;10.00;1.00;;;;;;6121333;23;20208;-90
2022/04/10 12:14:27;;;;;;;4.77;2.93;;;9.20;1.00;;;;;;6116241;23;20243;-91
2022/04/10 12:17:16;;;;;;;4.10;2.10;;;8.80;1.00;;;;;;6120785;23;20169;-88
2022/04/10 12:19:58;;;;;;;4.73;2.60;;;8.80;1.00;;;;;;6120797;23;20168;-92
2022/04/10 12:22:40;;;;;;;5.00;1.93;;;9.10;1.00;;;;;;6120062;23;20183;-91
2022/04/10 12:25:25;;;;;;;5.07;2.33;;;9.20;1.00;;;;;;6119658;23;20159;-90
2022/04/10 12:28:09;;;;;;;5.20;2.47;;;9.40;1.00;;;;;;6103039;23;20167;-89
2022/04/10 12:30:48;;;;;;;5.57;2.40;;;9.40;1.00;;;;;;6121939;23;20169;-89
2022/04/10 12:33:39;;;;;;;4.77;2.60;;;9.40;1.00;;;;;;6121123;23;20167;-91
2022/04/10 12:36:24;;;;;;;6.83;2.53;;;9.50;1.00;;;;;;6120662;23;20178;-90
2022/04/10 12:38:52;;;;;;;6.03;2.93;;;9.50;1.00;;;;;;6103552;23;20172;-92
2022/04/10 12:41:26;;;;;;;19.20;11.67;;;9.30;1.00;;;;;;6105114;23;20251;-89
2022/04/10 12:44:00;;;;;;;15.70;6.77;;;9.40;1.00;;;;;;6099633;23;20611;-87
2022/04/10 12:46:34;;;;;;;8.07;3.77;;;9.50;1.00;;;;;;6104256;23;20232;-87
2022/04/10 12:49:11;;;;;;;4.53;2.80;;;9.60;1.00;;;;;;6097102;23;20209;-87
2022/04/10 12:54:50;;;;;;;7.53;4.43;;;9.90;1.00;;;;;;6118364;23;20173;-87
2022/04/10 12:57:27;;;;;;;9.43;3.73;;;10.10;1.00;;;;;;6097111;23;20568;-86
2022/04/10 12:59:54;;;;;;;5.93;3.60;;;10.20;1.00;;;;;;6098033;23;20189;-87
2022/04/10 13:02:22;;;;;;;8.17;4.57;;;10.20;1.00;;;;;;6106852;23;20222;-88
2022/04/10 13:04:57;;;;;;;6.97;3.40;;;10.00;1.00;;;;;;6096587;23;20168;-88
2022/04/10 13:07:25;;;;;;;6.90;3.43;;;9.70;1.00;;;;;;6098533;23;20157;-89
2022/04/10 13:10:04;;;;;;;8.57;4.10;;;9.60;1.00;;;;;;6105667;23;20182;-87
2022/04/10 13:12:45;;;;;;;8.53;3.37;;;9.70;1.00;;;;;;6108811;23;20220;-89
2022/04/10 13:15:12;;;;;;;5.07;2.60;;;9.80;1.00;;;;;;6109044;23;20152;-89
2022/04/10 13:17:42;;;;;;;4.63;2.27;;;10.00;1.00;;;;;;6099711;23;20173;-86
2022/04/10 13:20:11;;;;;;;9.57;3.47;;;10.30;1.00;;;;;;6099004;23;20198;-89
2022/04/10 13:22:42;;;;;;;13.87;10.77;;;10.30;1.00;;;;;;6112227;23;20184;-89
2022/04/10 13:25:11;;;;;;;8.37;5.90;;;10.40;1.00;;;;;;6106591;23;20167;-87